地図

経路データ

SID SEASON NUMBER BASIN SUBBASIN NAME ISO_TIME NATURE LAT LON WMO_WIND WMO_PRES WMO_AGENCY TRACK_TYPE DIST2LAND LANDFALL IFLAG USA_AGENCY USA_ATCF_ID USA_LAT USA_LON USA_RECORD USA_STATUS USA_WIND USA_PRES USA_SSHS USA_R34_NE USA_R34_SE USA_R34_SW USA_R34_NW USA_R50_NE USA_R50_SE USA_R50_SW USA_R50_NW USA_R64_NE USA_R64_SE USA_R64_SW USA_R64_NW USA_POCI USA_ROCI USA_RMW USA_EYE TOKYO_LAT TOKYO_LON TOKYO_GRADE TOKYO_WIND TOKYO_PRES TOKYO_R50_DIR TOKYO_R50_LONG TOKYO_R50_SHORT TOKYO_R30_DIR TOKYO_R30_LONG TOKYO_R30_SHORT TOKYO_LAND CMA_LAT CMA_LON CMA_CAT CMA_WIND CMA_PRES HKO_LAT HKO_LON HKO_CAT HKO_WIND HKO_PRES NEWDELHI_LAT NEWDELHI_LON NEWDELHI_GRADE NEWDELHI_WIND NEWDELHI_PRES NEWDELHI_CI NEWDELHI_DP NEWDELHI_POCI REUNION_LAT REUNION_LON REUNION_TYPE REUNION_WIND REUNION_PRES REUNION_TNUM REUNION_CI REUNION_RMW REUNION_R34_NE REUNION_R34_SE REUNION_R34_SW REUNION_R34_NW REUNION_R50_NE REUNION_R50_SE REUNION_R50_SW REUNION_R50_NW REUNION_R64_NE REUNION_R64_SE REUNION_R64_SW REUNION_R64_NW BOM_LAT BOM_LON BOM_TYPE BOM_WIND BOM_PRES BOM_TNUM BOM_CI BOM_RMW BOM_R34_NE BOM_R34_SE BOM_R34_SW BOM_R34_NW BOM_R50_NE BOM_R50_SE BOM_R50_SW BOM_R50_NW BOM_R64_NE BOM_R64_SE BOM_R64_SW BOM_R64_NW BOM_ROCI BOM_POCI BOM_EYE BOM_POS_METHOD BOM_PRES_METHOD NADI_LAT NADI_LON NADI_CAT NADI_WIND NADI_PRES WELLINGTON_LAT WELLINGTON_LON WELLINGTON_WIND WELLINGTON_PRES DS824_LAT DS824_LON DS824_STAGE DS824_WIND DS824_PRES TD9636_LAT TD9636_LON TD9636_STAGE TD9636_WIND TD9636_PRES TD9635_LAT TD9635_LON TD9635_WIND TD9635_PRES TD9635_ROCI NEUMANN_LAT NEUMANN_LON NEUMANN_CLASS NEUMANN_WIND NEUMANN_PRES MLC_LAT MLC_LON MLC_CLASS MLC_WIND MLC_PRES USA_GUST BOM_GUST BOM_GUST_PER REUNION_GUST REUNION_GUST_PER USA_SEAHGT USA_SEARAD_NE USA_SEARAD_SE USA_SEARAD_SW USA_SEARAD_NW STORM_SPEED STORM_DIR
1848061S12073 1848 5 SI MM NOT_NAMED 1848-03-01 09:00:00 NR -11.9456 73.0955 spur-other 1883 1754 ______________ -1 26 256
1848061S12073 1848 5 SI MM NOT_NAMED 1848-03-01 12:00:00 NR -12.2655 71.8061 spur-other 1739 1602 ______________ -1 27 256
1848061S12073 1848 5 SI MM NOT_NAMED 1848-03-01 15:00:00 NR -12.6270 70.3884 spur-other 1593 1451 ______________ -1 28 255
1848061S12073 1848 5 SI MM NOT_NAMED 1848-03-01 18:00:00 NR -13.0000 69.0000 spur-other 1442 1325 __________O___ -1 -13.0000 69.0000 7 26 254
1848061S12073 1848 5 SI MM NOT_NAMED 1848-03-01 21:00:00 NR -13.3408 67.8428 spur-other 1317 1203 __________P___ -1 -13.3599 67.9040 7 23 253
1848061S12073 1848 5 SI MM NOT_NAMED 1848-03-02 00:00:00 NR -13.6901 66.7446 spur-other 1195 1098 __________P___ -1 -13.7139 66.8148 7 22 251
1848061S12073 1848 5 SI MM NOT_NAMED 1848-03-02 03:00:00 NR -14.0444 65.6990 spur-other 1090 987 __________P___ -1 -14.0609 65.7434 7 21 250
1848061S12073 1848 5 SI MM NOT_NAMED 1848-03-02 06:00:00 NR -14.4000 64.7000 spur-other 979 877 __________O___ -1 -14.4000 64.7000 7 21 250
1848061S12073 1848 5 SI MM NOT_NAMED 1848-03-02 09:00:00 NR -14.7327 63.6945 spur-other 877 786 __________P___ -1 -14.7327 63.6945 7 20 251
1848061S12073 1848 5 SI MM NOT_NAMED 1848-03-02 12:00:00 NR -15.0688 62.7364 spur-other 770 688 __________P___ -1 -15.0688 62.7364 7 19 249
1848061S12073 1848 5 SI MM NOT_NAMED 1848-03-02 15:00:00 NR -15.4206 61.8350 spur-other 681 594 __________P___ -1 -15.4206 61.8350 7 18 246
1848061S12073 1848 5 SI MM NOT_NAMED 1848-03-02 18:00:00 NR -15.8000 61.0000 spur-other 594 510 __________O___ -1 -15.8000 61.0000 7 18 242
1848061S12073 1848 5 SI MM NOT_NAMED 1848-03-02 21:00:00 NR -16.2655 60.1515 spur-other 500 420 __________P___ -1 -16.2655 60.1515 7 18 239
1848061S12073 1848 5 SI MM NOT_NAMED 1848-03-03 00:00:00 NR -16.7523 59.3773 spur-other 410 341 __________P___ -1 -16.7523 59.3773 7 17 235
1848061S12073 1848 5 SI MM NOT_NAMED 1848-03-03 03:00:00 NR -17.2128 58.7141 spur-other 341 284 __________P___ -1 -17.2128 58.7141 7 14 233
1848061S12073 1848 5 SI MM NOT_NAMED 1848-03-03 06:00:00 NR -17.6000 58.2000 spur-other 284 258 __________O___ -1 -17.6000 58.2000 7 10 231
1848061S12073 1848 5 SI MM NOT_NAMED 1848-03-03 09:00:00 NR -17.8605 57.8721 spur-other 247 234 __________P___ -1 -17.8796 57.8595 7 7 227
1848061S12073 1848 5 SI MM NOT_NAMED 1848-03-03 12:00:00 NR -18.0456 57.6903 spur-other 234 212 __________P___ -1 -18.0694 57.6607 7 4 220
1848061S12073 1848 5 SI MM NOT_NAMED 1848-03-03 15:00:00 NR -18.1829 57.5884 spur-other 212 201 __________P___ -1 -18.1996 57.5566 7 3 215
1848061S12073 1848 5 SI MM NOT_NAMED 1848-03-03 18:00:00 NR -18.3000 57.5000 spur-other 201 201 __________O___ -1 -18.3000 57.5000 7 3 236
1848061S12073 1848 5 SI MM NOT_NAMED 1848-03-03 21:00:00 NR -18.3500 57.3281 spur-other 202 ______________ -1 7 3 253

IBTrACS Databaseについて

本データベースは、米国NOAAが公開する1842年以降の世界の熱帯低気圧のベストトラックデータアーカイブInternational Best Track Archive for Climate Stewardship (IBTrACS)を、ウェブで閲覧しやすい形式に変換したものです。

最終更新日:2021-12-01